createdAt,value
2019-04-20T00:02:27.586Z,99586.12
2019-04-20T00:05:01.635Z,99589.30
2019-04-20T00:07:37.530Z,99589.30
2019-04-20T00:10:16.531Z,99585.25
2019-04-20T00:12:59.714Z,99585.25
2019-04-20T00:15:21.988Z,99579.02
2019-04-20T00:17:58.966Z,99579.52
2019-04-20T00:20:34.366Z,99584.41
2019-04-20T00:23:22.945Z,99581.72
2019-04-20T00:26:17.312Z,99579.86
2019-04-20T00:29:02.740Z,99578.51
2019-04-20T00:31:36.521Z,99585.25
2019-04-20T00:34:05.922Z,99580.73
2019-04-20T00:36:30.744Z,99581.20
2019-04-20T00:39:09.130Z,99577.67
2019-04-20T00:41:49.028Z,99586.12
2019-04-20T00:44:22.234Z,99574.13
2019-04-20T00:47:04.607Z,99578.17
2019-04-20T00:49:41.931Z,99581.72
2019-04-20T00:52:31.045Z,99581.20
2019-04-20T00:54:39.107Z,99573.63
2019-04-20T00:57:22.457Z,99579.02
2019-04-20T01:00:21.769Z,99576.32
2019-04-20T01:02:36.145Z,99573.12
2019-04-20T01:05:18.079Z,99574.97
2019-04-20T01:07:53.536Z,99575.81
2019-04-20T01:10:28.379Z,99571.77
2019-04-20T01:13:06.754Z,99572.28
2019-04-20T01:15:43.786Z,99567.25
2019-04-20T01:18:13.591Z,99570.09
2019-04-20T01:20:47.350Z,99572.64
2019-04-20T01:23:24.343Z,99569.95
2019-04-20T01:26:04.048Z,99569.07
2019-04-20T01:28:46.792Z,99563.20
2019-04-20T01:31:18.707Z,99564.19
2019-04-20T01:33:55.085Z,99568.23
2019-04-20T01:36:36.887Z,99562.84
2019-04-20T01:39:07.544Z,99565.53
2019-04-20T01:41:30.767Z,99560.14
2019-04-20T01:44:05.098Z,99565.53
2019-04-20T01:46:45.699Z,99564.19
2019-04-20T01:49:18.207Z,99564.19
2019-04-20T01:51:57.753Z,99561.49
2019-04-20T01:54:48.485Z,99556.61
2019-04-20T01:57:26.187Z,99565.03
2019-04-20T02:00:11.086Z,99564.19
2019-04-20T02:02:50.440Z,99554.42
2019-04-20T02:05:24.736Z,99555.77
2019-04-20T02:07:57.096Z,99562.00
2019-04-20T02:10:40.376Z,99562.52
2019-04-20T02:13:07.777Z,99561.49
2019-04-20T02:15:48.538Z,99556.61
2019-04-20T02:18:33.803Z,99557.12
2019-04-20T02:21:09.828Z,99558.47
2019-04-20T02:23:38.702Z,99556.28
2019-04-20T02:26:05.072Z,99562.52
2019-04-20T02:29:07.925Z,99561.16
2019-04-20T02:31:55.619Z,99555.77
2019-04-20T02:34:33.528Z,99559.81
2019-04-20T02:39:46.791Z,99561.16
2019-04-20T02:42:19.716Z,99559.81
2019-04-20T02:45:05.175Z,99554.93
2019-04-20T02:47:32.108Z,99558.47
2019-04-20T02:53:05.267Z,99556.61
2019-04-20T02:55:16.545Z,99557.12
2019-04-20T02:57:53.020Z,99561.16
2019-04-20T03:00:20.877Z,99564.70
2019-04-20T03:02:42.979Z,99559.30
2019-04-20T03:05:18.944Z,99561.16
2019-04-20T03:07:57.525Z,99563.02
2019-04-20T03:10:43.417Z,99553.58
2019-04-20T03:13:14.165Z,99557.95
2019-04-20T03:15:51.974Z,99562.00
2019-04-20T03:18:19.743Z,99562.14
2019-04-20T03:21:04.548Z,99557.12
2019-04-20T03:23:42.802Z,99563.86
2019-04-20T03:26:12.856Z,99561.67
2019-04-20T03:29:01.563Z,99562.52
2019-04-20T03:32:15.009Z,99554.06
2019-04-20T03:34:48.128Z,99554.06
2019-04-20T03:39:33.425Z,99557.63
2019-04-20T03:41:52.040Z,99561.30
2019-04-20T03:44:27.811Z,99558.47
2019-04-20T03:47:04.618Z,99567.54
2019-04-20T03:50:14.788Z,99565.20
2019-04-20T03:52:43.157Z,99566.55
2019-04-20T03:55:28.702Z,99565.71
2019-04-20T03:58:12.785Z,99568.73
2019-04-20T04:00:54.475Z,99564.84
2019-04-20T04:06:14.776Z,99567.91
2019-04-20T04:08:56.025Z,99576.32
2019-04-20T04:11:31.260Z,99575.15
2019-04-20T04:13:52.932Z,99571.44
2019-04-20T04:16:32.891Z,99583.42
2019-04-20T04:19:12.621Z,99584.41
2019-04-20T04:21:53.734Z,99591.66
2019-04-20T04:24:26.107Z,99588.45
2019-04-20T04:27:01.899Z,99585.42
2019-04-20T04:29:42.925Z,99590.16
2019-04-20T04:32:33.172Z,99593.84
2019-04-20T04:34:55.294Z,99594.21
2019-04-20T04:37:24.324Z,99591.52
2019-04-20T04:40:19.574Z,99592.86
2019-04-20T04:42:42.339Z,99602.30
2019-04-20T04:45:03.950Z,99596.03
2019-04-20T04:47:32.723Z,99600.95
2019-04-20T04:50:13.077Z,99597.57
2019-04-20T04:52:52.214Z,99593.70
2019-04-20T04:55:29.537Z,99598.59
2019-04-20T04:57:53.779Z,99604.81
2019-04-20T05:00:31.078Z,99604.31
2019-04-20T05:03:23.293Z,99602.96
2019-04-20T05:06:13.387Z,99599.93
2019-04-20T05:08:36.832Z,99599.93
2019-04-20T05:11:06.943Z,99598.91
2019-04-20T05:13:48.891Z,99603.47
2019-04-20T05:16:38.465Z,99597.57
2019-04-20T05:19:13.424Z,99598.44
2019-04-20T05:22:04.051Z,99597.57
2019-04-20T05:25:03.489Z,99597.42
2019-04-20T05:27:51.195Z,99600.96
2019-04-20T05:30:09.846Z,99595.23
2019-04-20T05:32:52.835Z,99588.49
2019-04-20T05:35:39.213Z,99596.22
2019-04-20T05:38:28.105Z,99588.49
2019-04-20T05:40:51.440Z,99594.22
2019-04-20T05:43:43.135Z,99589.33
2019-04-20T05:46:23.600Z,99592.73
2019-04-20T05:49:00.553Z,99591.85
2019-04-20T05:51:36.452Z,99595.42
2019-04-20T05:54:07.228Z,99589.16
2019-04-20T05:56:56.272Z,99591.85
2019-04-20T05:59:17.587Z,99593.56
2019-04-20T06:01:58.805Z,99589.85
2019-04-20T06:04:42.776Z,99590.22
2019-04-20T06:07:09.733Z,99587.66
2019-04-20T06:09:42.656Z,99587.02
2019-04-20T06:15:04.585Z,99591.05
2019-04-20T06:18:02.757Z,99586.17
2019-04-20T06:20:45.288Z,99591.23
2019-04-20T06:23:39.842Z,99592.23
2019-04-20T06:26:26.867Z,99588.18
2019-04-20T06:28:41.555Z,99585.67
2019-04-20T06:31:26.721Z,99586.88
2019-04-20T06:37:05.756Z,99586.18
2019-04-20T06:39:44.779Z,99586.88
2019-04-20T06:44:41.302Z,99582.50
2019-04-20T06:47:17.673Z,99573.76
2019-04-20T06:49:56.671Z,99575.11
2019-04-20T06:52:36.996Z,99571.72
2019-04-20T06:55:14.077Z,99580.14
2019-04-20T06:57:54.860Z,99579.16
2019-04-20T07:00:36.876Z,99576.64
2019-04-20T07:03:04.678Z,99573.58
2019-04-20T07:05:44.737Z,99575.29
2019-04-20T07:08:34.623Z,99576.13
2019-04-20T07:10:58.173Z,99574.27
2019-04-20T07:13:24.004Z,99579.66
2019-04-20T07:16:23.930Z,99572.92
2019-04-20T07:19:17.557Z,99567.20
2019-04-20T07:24:53.268Z,99566.69
2019-04-20T07:27:24.430Z,99570.73
2019-04-20T07:29:57.948Z,99569.39
2019-04-20T07:32:38.690Z,99567.38
2019-04-20T07:35:09.890Z,99567.99
2019-04-20T07:40:26.874Z,99567.34
2019-04-20T07:42:58.751Z,99565.34
2019-04-20T07:45:33.235Z,99559.11
2019-04-20T07:48:16.131Z,99566.87
2019-04-20T07:50:40.771Z,99559.63
2019-04-20T07:53:21.411Z,99556.59
2019-04-20T07:55:57.993Z,99558.34
2019-04-20T07:58:27.323Z,99551.13
2019-04-20T08:01:22.298Z,99548.94
2019-04-20T08:04:11.498Z,99546.42
2019-04-20T08:06:38.627Z,99555.86
2019-04-20T08:09:22.224Z,99544.41
2019-04-20T08:12:11.748Z,99543.06
2019-04-20T08:14:47.998Z,99539.52
2019-04-20T08:17:46.497Z,99541.72
2019-04-20T08:19:50.908Z,99533.14
2019-04-20T08:22:35.584Z,99523.52
2019-04-20T08:25:01.151Z,99528.07
2019-04-20T08:27:27.646Z,99527.56
2019-04-20T08:30:28.188Z,99523.52
2019-04-20T08:33:04.256Z,99524.25
2019-04-20T08:35:47.704Z,99525.12
2019-04-20T08:38:58.325Z,99522.94
2019-04-20T08:40:53.296Z,99514.49
2019-04-20T08:43:42.560Z,99522.42
2019-04-20T08:46:11.215Z,99522.24
2019-04-20T08:48:46.766Z,99518.70
2019-04-20T08:51:19.504Z,99512.31
2019-04-20T08:53:51.860Z,99513.30
2019-04-20T08:56:21.612Z,99507.06
2019-04-20T08:58:46.138Z,99507.56
2019-04-20T09:01:24.271Z,99506.06
2019-04-20T09:04:05.402Z,99504.20
2019-04-20T09:06:46.053Z,99507.09
2019-04-20T09:09:40.590Z,99501.16
2019-04-20T09:12:03.237Z,99507.39
2019-04-20T09:14:20.906Z,99503.70
2019-04-20T09:17:06.851Z,99503.85
2019-04-20T09:19:46.974Z,99497.11
2019-04-20T09:22:40.618Z,99492.55
2019-04-20T09:28:16.111Z,99499.09
2019-04-20T09:30:53.253Z,99495.73
2019-04-20T09:33:46.598Z,99492.69
2019-04-20T09:36:22.564Z,99505.14
2019-04-20T09:39:15.017Z,99495.19
2019-04-20T09:42:00.764Z,99488.05
2019-04-20T09:44:34.977Z,99487.12
2019-04-20T09:47:04.684Z,99486.70
2019-04-20T09:49:49.232Z,99480.05
2019-04-20T09:52:29.000Z,99478.25
2019-04-20T09:55:03.122Z,99475.23
2019-04-20T09:57:43.853Z,99477.60
2019-04-20T10:00:15.535Z,99482.81
2019-04-20T10:02:39.240Z,99467.98
2019-04-20T10:05:13.587Z,99468.63
2019-04-20T10:07:56.905Z,99464.11
2019-04-20T10:10:31.289Z,99469.33
2019-04-20T10:13:00.537Z,99477.90
2019-04-20T10:15:35.383Z,99463.19
2019-04-20T10:18:10.026Z,99459.50
2019-04-20T10:20:45.222Z,99455.48
2019-04-20T10:23:18.995Z,99463.24
2019-04-20T10:25:52.766Z,99454.73
2019-04-20T10:28:27.716Z,99448.53
2019-04-20T10:31:02.303Z,99438.58
2019-04-20T10:33:37.333Z,99433.70
2019-04-20T10:36:23.641Z,99434.27
2019-04-20T10:38:58.249Z,99430.22
2019-04-20T10:41:39.956Z,99434.92
2019-04-20T10:44:09.185Z,99426.50
2019-04-20T10:46:43.280Z,99420.27
2019-04-20T10:49:17.547Z,99429.88
2019-04-20T10:51:51.774Z,99431.06
2019-04-20T10:54:26.685Z,99427.19
2019-04-20T10:57:01.496Z,99425.48
2019-04-20T10:59:35.402Z,99410.31
2019-04-20T11:02:10.049Z,99409.66
2019-04-20T11:04:44.373Z,99401.71
2019-04-20T11:07:18.717Z,99408.97
2019-04-20T11:10:05.591Z,99401.56
2019-04-20T11:12:28.490Z,99408.28
2019-04-20T11:15:02.957Z,99420.91
2019-04-20T11:17:37.398Z,99405.89
2019-04-20T11:20:11.149Z,99401.48
2019-04-20T11:22:46.283Z,99404.36
2019-04-20T11:25:20.350Z,99394.74
2019-04-20T11:27:54.418Z,99393.39
2019-04-20T11:30:28.095Z,99401.84
2019-04-20T11:33:02.378Z,99394.08
2019-04-20T11:35:39.577Z,99387.58
2019-04-20T11:38:14.757Z,99396.28
2019-04-20T11:41:00.124Z,99387.83
2019-04-20T11:43:23.953Z,99383.92
2019-04-20T11:45:58.525Z,99383.28
2019-04-20T11:48:33.715Z,99383.09
2019-04-20T11:51:07.636Z,99379.72
2019-04-20T11:53:42.681Z,99373.90
2019-04-20T11:56:22.681Z,99366.47
2019-04-20T11:58:53.148Z,99357.59
2019-04-20T12:01:49.036Z,99371.80
2019-04-20T12:04:26.127Z,99362.33
2019-04-20T12:07:51.363Z,99367.03
2019-04-20T12:10:26.461Z,99363.73
2019-04-20T12:13:01.754Z,99357.97
2019-04-20T12:15:38.807Z,99347.67
2019-04-20T12:18:13.784Z,99340.69
2019-04-20T12:20:48.783Z,99345.28
2019-04-20T12:23:22.607Z,99333.13
2019-04-20T12:25:56.512Z,99342.14
2019-04-20T12:28:31.529Z,99338.89
2019-04-20T12:31:11.989Z,99343.73
2019-04-20T12:33:42.328Z,99333.47
2019-04-20T12:36:16.495Z,99336.29
2019-04-20T12:38:50.960Z,99333.94
2019-04-20T12:41:34.458Z,99331.69
2019-04-20T12:44:01.738Z,99331.50
2019-04-20T12:46:36.034Z,99332.43
2019-04-20T12:49:09.847Z,99320.68
2019-04-20T12:51:50.655Z,99326.39
2019-04-20T12:54:18.960Z,99315.63
2019-04-20T12:56:53.049Z,99314.43
2019-04-20T12:59:27.523Z,99317.42
2019-04-20T13:02:01.671Z,99324.46
2019-04-20T13:04:35.361Z,99313.78
2019-04-20T13:07:10.083Z,99316.25
2019-04-20T13:09:51.019Z,99312.34
2019-04-20T13:12:47.203Z,99296.90
2019-04-20T13:16:00.556Z,99303.11
2019-04-20T13:18:53.088Z,99300.89
2019-04-20T13:21:27.174Z,99304.46
2019-04-20T13:24:00.946Z,99299.81
2019-04-20T13:26:35.162Z,99293.59
2019-04-20T13:29:09.110Z,99301.66
2019-04-20T13:31:43.875Z,99304.88
2019-04-20T13:34:17.762Z,99287.02
2019-04-20T13:36:52.500Z,99303.12
2019-04-20T13:39:26.858Z,99295.84
2019-04-20T13:42:10.215Z,99282.89
2019-04-20T13:44:36.916Z,99286.68
2019-04-20T13:47:10.885Z,99287.95
2019-04-20T13:49:45.177Z,99283.27
2019-04-20T13:52:20.288Z,99280.06
2019-04-20T13:54:54.671Z,99279.39
2019-04-20T13:57:39.932Z,99275.08
2019-04-20T14:00:31.665Z,99275.22
2019-04-20T14:03:08.993Z,99268.92
2019-04-20T14:05:42.836Z,99262.54
2019-04-20T14:08:18.349Z,99253.89
2019-04-20T14:10:53.352Z,99256.90
2019-04-20T14:13:36.571Z,99258.36
2019-04-20T14:16:03.172Z,99252.36
2019-04-20T14:18:37.503Z,99250.45
2019-04-20T14:21:12.207Z,99242.75
2019-04-20T14:23:46.127Z,99241.03
2019-04-20T14:26:20.994Z,99237.63
2019-04-20T14:28:54.797Z,99234.03
2019-04-20T14:31:30.008Z,99232.39
2019-04-20T14:34:04.811Z,99234.42
2019-04-20T14:36:39.087Z,99243.30
2019-04-20T14:39:14.041Z,99228.91
2019-04-20T14:41:48.631Z,99232.09
2019-04-20T14:44:23.684Z,99225.92
2019-04-20T14:46:57.999Z,99225.15
2019-04-20T14:49:32.655Z,99226.02
2019-04-20T14:52:08.066Z,99230.03
2019-04-20T14:54:43.454Z,99220.17
2019-04-20T14:57:17.391Z,99217.88
2019-04-20T15:00:05.474Z,99222.99
2019-04-20T15:02:40.361Z,99221.83
2019-04-20T15:05:14.973Z,99208.36
2019-04-20T15:07:48.914Z,99209.40
2019-04-20T15:10:22.831Z,99212.09
2019-04-20T15:13:01.039Z,99209.55
2019-04-20T15:15:32.559Z,99207.90
2019-04-20T15:18:09.501Z,99211.94
2019-04-20T15:20:47.770Z,99208.58
2019-04-20T15:23:23.923Z,99198.98
2019-04-20T15:25:58.203Z,99201.03
2019-04-20T15:28:32.501Z,99203.58
2019-04-20T15:31:08.020Z,99197.50
2019-04-20T15:33:43.140Z,99204.41
2019-04-20T15:36:18.036Z,99204.56
2019-04-20T15:38:53.249Z,99201.53
2019-04-20T15:41:27.497Z,99207.13
2019-04-20T15:44:02.076Z,99206.29
2019-04-20T15:46:37.060Z,99194.83
2019-04-20T15:49:13.373Z,99196.18
2019-04-20T15:51:47.866Z,99192.80
2019-04-20T15:54:23.174Z,99191.46
2019-04-20T15:57:02.446Z,99194.31
2019-04-20T15:59:32.673Z,99188.59
2019-04-20T16:02:13.889Z,99185.55
2019-04-20T16:04:56.632Z,99183.36
2019-04-20T16:07:37.931Z,99188.92
2019-04-20T16:10:07.318Z,99180.52
2019-04-20T16:12:42.635Z,99180.59
2019-04-20T16:15:17.761Z,99182.36
2019-04-20T16:17:53.180Z,99184.55
2019-04-20T16:20:28.857Z,99183.70
2019-04-20T16:23:02.779Z,99184.05
2019-04-20T16:25:47.787Z,99184.73
2019-04-20T16:28:21.737Z,99187.42
2019-04-20T16:30:55.919Z,99185.41
2019-04-20T16:33:30.516Z,99178.98
2019-04-20T16:36:04.756Z,99182.36
2019-04-20T16:38:40.182Z,99190.44
2019-04-20T16:41:14.672Z,99184.38
2019-04-20T16:43:49.986Z,99179.49
2019-04-20T16:46:25.853Z,99175.45
2019-04-20T16:49:01.047Z,99188.09
2019-04-20T16:51:35.060Z,99186.73
2019-04-20T16:54:10.095Z,99185.39
2019-04-20T16:56:44.552Z,99185.91
2019-04-20T16:59:19.629Z,99193.47
2019-04-20T17:01:54.039Z,99185.05
2019-04-20T17:04:28.918Z,99185.73
2019-04-20T17:07:20.779Z,99187.59
2019-04-20T17:09:55.832Z,99190.29
2019-04-20T17:12:30.100Z,99182.02
2019-04-20T17:15:05.440Z,99184.39
2019-04-20T17:17:39.922Z,99188.43
2019-04-20T17:20:13.835Z,99189.27
2019-04-20T17:22:48.645Z,99193.82
2019-04-20T17:25:23.950Z,99185.41
2019-04-20T17:28:07.269Z,99189.93
2019-04-20T17:31:01.144Z,99191.28
2019-04-20T17:34:02.628Z,99197.36
2019-04-20T17:36:31.784Z,99194.31
2019-04-20T17:39:10.282Z,99195.51
2019-04-20T17:42:00.578Z,99197.86
2019-04-20T17:44:34.219Z,99199.21
2019-04-20T17:47:05.331Z,99199.38
2019-04-20T17:49:41.293Z,99203.08
2019-04-20T17:52:28.084Z,99202.57
2019-04-20T17:54:47.438Z,99205.95
2019-04-20T17:57:21.556Z,99209.80
2019-04-20T18:00:11.638Z,99204.41
2019-04-20T18:03:06.041Z,99204.54
2019-04-20T18:06:06.233Z,99205.08
2019-04-20T18:08:42.480Z,99208.30
2019-04-20T18:11:05.691Z,99206.46
2019-04-20T18:13:34.234Z,99214.03
2019-04-20T18:16:36.550Z,99213.02
2019-04-20T18:19:13.082Z,99215.73
2019-04-20T18:21:43.576Z,99209.66
2019-04-20T18:24:42.345Z,99216.72
2019-04-20T18:27:14.192Z,99217.05
2019-04-20T18:29:50.294Z,99221.27
2019-04-20T18:32:29.518Z,99218.06
2019-04-20T18:35:28.879Z,99216.91
2019-04-20T18:38:07.694Z,99214.70
2019-04-20T18:40:49.318Z,99211.52
2019-04-20T18:43:20.479Z,99214.03
2019-04-20T18:46:07.897Z,99214.20
2019-04-20T18:48:49.605Z,99217.09
2019-04-20T18:51:01.779Z,99218.42
2019-04-20T18:53:41.133Z,99213.03
2019-04-20T18:56:16.997Z,99211.68
2019-04-20T18:58:51.179Z,99217.94
2019-04-20T19:01:31.923Z,99219.61
2019-04-20T19:04:01.624Z,99211.02
2019-04-20T19:06:35.971Z,99217.60
2019-04-20T19:09:16.773Z,99212.54
2019-04-20T19:11:53.456Z,99215.90
2019-04-20T19:14:40.075Z,99218.77
2019-04-20T19:17:40.270Z,99214.06
2019-04-20T19:20:07.001Z,99217.78
2019-04-20T19:22:44.010Z,99217.93
2019-04-20T19:25:25.611Z,99212.20
2019-04-20T19:27:55.973Z,99214.89
2019-04-20T19:30:37.447Z,99206.30
2019-04-20T19:33:20.575Z,99200.91
2019-04-20T19:35:50.132Z,99202.25
2019-04-20T19:38:21.901Z,99199.56
2019-04-20T19:40:58.308Z,99199.91
2019-04-20T19:43:33.540Z,99196.38
2019-04-20T19:46:39.323Z,99195.52
2019-04-20T19:48:51.502Z,99194.52
2019-04-20T19:51:38.544Z,99189.13
2019-04-20T19:54:19.705Z,99193.86
2019-04-20T19:56:47.043Z,99195.87
2019-04-20T19:59:18.653Z,99203.11
2019-04-20T20:01:40.345Z,99199.08
2019-04-20T20:04:15.664Z,99201.27
2019-04-20T20:06:56.210Z,99195.52
2019-04-20T20:09:25.918Z,99202.78
2019-04-20T20:12:04.926Z,99203.30
2019-04-20T20:14:39.727Z,99201.08
2019-04-20T20:17:32.767Z,99202.42
2019-04-20T20:20:16.401Z,99200.59
2019-04-20T20:22:32.243Z,99210.36
2019-04-20T20:24:57.757Z,99202.27
2019-04-20T20:27:45.052Z,99206.83
2019-04-20T20:30:21.553Z,99209.52
2019-04-20T20:32:59.488Z,99209.67
2019-04-20T20:35:23.569Z,99208.33
2019-04-20T20:37:58.855Z,99203.96
2019-04-20T20:40:36.594Z,99200.91
2019-04-20T20:43:17.580Z,99206.31
2019-04-20T20:45:58.108Z,99205.29
2019-04-20T20:48:34.008Z,99204.45
2019-04-20T20:51:12.061Z,99203.30
2019-04-20T20:53:49.878Z,99206.83
2019-04-20T20:56:15.092Z,99200.09
2019-04-20T20:58:53.488Z,99202.78
2019-04-20T21:01:23.691Z,99202.27
2019-04-20T21:03:54.638Z,99207.66
2019-04-20T21:06:28.698Z,99202.42
2019-04-20T21:09:03.716Z,99202.78
2019-04-20T21:11:38.141Z,99200.23
2019-04-20T21:14:13.534Z,99197.55
2019-04-20T21:16:57.598Z,99198.73
2019-04-20T21:19:41.861Z,99206.31
2019-04-20T21:22:06.904Z,99203.62
2019-04-20T21:24:39.892Z,99205.12
2019-04-20T21:27:17.031Z,99195.36
2019-04-20T21:29:53.352Z,99204.12
2019-04-20T21:32:26.227Z,99208.17
2019-04-20T21:35:03.048Z,99207.66
2019-04-20T21:37:36.917Z,99197.91
2019-04-20T21:40:22.768Z,99201.08
2019-04-20T21:42:52.499Z,99201.08
2019-04-20T21:45:27.374Z,99196.20
2019-04-20T21:48:03.385Z,99200.09
2019-04-20T21:50:53.475Z,99196.05
2019-04-20T21:53:17.866Z,99201.09
2019-04-20T21:55:46.027Z,99199.90
2019-04-20T21:58:29.653Z,99201.44
2019-04-20T22:01:09.237Z,99195.69
2019-04-20T22:03:34.331Z,99192.98
2019-04-20T22:06:08.924Z,99200.23
2019-04-20T22:08:49.587Z,99192.66
2019-04-20T22:11:19.860Z,99189.45
2019-04-20T22:13:54.600Z,99194.34
2019-04-20T22:16:36.409Z,99187.78
2019-04-20T22:19:17.239Z,99182.72
2019-04-20T22:21:54.360Z,99184.58
2019-04-20T22:24:33.128Z,99179.70
2019-04-20T22:27:03.334Z,99181.04
2019-04-20T22:29:26.053Z,99183.23
2019-04-20T22:32:06.276Z,99186.76
2019-04-20T22:34:35.349Z,99180.02
2019-04-20T22:37:15.308Z,99179.19
2019-04-20T22:39:52.345Z,99177.33
2019-04-20T22:42:23.581Z,99176.33
2019-04-20T22:45:03.800Z,99172.44
2019-04-20T22:47:34.388Z,99177.98
2019-04-20T22:50:38.349Z,99170.92
2019-04-20T22:52:55.275Z,99173.11
2019-04-20T22:55:45.589Z,99171.44
2019-04-20T22:58:04.996Z,99169.25
2019-04-20T23:00:40.697Z,99171.44
2019-04-20T23:03:07.187Z,99164.85
2019-04-20T23:05:41.142Z,99161.16
2019-04-20T23:08:14.988Z,99162.16
2019-04-20T23:10:49.790Z,99154.07
2019-04-20T23:13:30.413Z,99152.40
2019-04-20T23:16:01.979Z,99147.33
2019-04-20T23:18:34.489Z,99149.70
2019-04-20T23:21:12.328Z,99148.36
2019-04-20T23:23:43.739Z,99148.36
2019-04-20T23:26:27.838Z,99142.13
2019-04-20T23:28:56.095Z,99145.66
2019-04-20T23:31:30.128Z,99134.04
2019-04-20T23:34:12.805Z,99140.27
2019-04-20T23:36:44.137Z,99134.55
2019-04-20T23:39:14.925Z,99130.98
2019-04-20T23:41:55.690Z,99130.51
2019-04-20T23:44:58.219Z,99122.42
2019-04-20T23:47:54.069Z,99120.05
2019-04-20T23:50:44.889Z,99118.38
2019-04-20T23:53:19.462Z,99117.86
2019-04-20T23:55:36.029Z,99122.90
2019-04-20T23:58:11.228Z,99117.35
